createdAt,value
2022-09-12T00:01:50.297Z,24.73
2022-09-12T00:04:16.913Z,22.67
2022-09-12T00:06:43.660Z,22.63
2022-09-12T00:09:14.152Z,25.83
2022-09-12T00:11:43.648Z,23.95
2022-09-12T00:14:14.384Z,22.40
2022-09-12T00:16:41.417Z,23.73
2022-09-12T00:19:09.298Z,22.63
2022-09-12T00:21:37.295Z,22.10
2022-09-12T00:24:04.553Z,20.63
2022-09-12T00:26:31.708Z,30.42
2022-09-12T00:28:58.448Z,22.08
2022-09-12T00:31:26.750Z,24.77
2022-09-12T00:33:57.115Z,21.87
2022-09-12T00:36:25.438Z,22.13
2022-09-12T00:38:52.785Z,25.98
2022-09-12T00:41:33.655Z,23.17
2022-09-12T00:44:21.612Z,25.25
2022-09-12T00:47:00.334Z,23.30
2022-09-12T00:49:46.180Z,21.42
2022-09-12T00:52:19.528Z,28.38
2022-09-12T00:55:04.930Z,22.52
2022-09-12T00:57:37.737Z,24.13
2022-09-12T01:00:16.974Z,22.33
2022-09-12T01:02:55.740Z,24.85
2022-09-12T01:05:23.845Z,23.27
2022-09-12T01:07:52.384Z,26.92
2022-09-12T01:10:22.698Z,23.30
2022-09-12T01:12:50.221Z,23.57
2022-09-12T01:15:16.980Z,24.50
2022-09-12T01:18:05.515Z,22.45
2022-09-12T01:20:53.695Z,25.77
2022-09-12T01:23:35.383Z,32.42
2022-09-12T01:26:23.619Z,26.97
2022-09-12T01:29:14.534Z,26.85
2022-09-12T01:32:03.949Z,24.73
2022-09-12T01:34:35.781Z,23.77
2022-09-12T01:37:17.109Z,25.63
2022-09-12T01:40:00.087Z,25.77
2022-09-12T01:42:56.793Z,25.77
2022-09-12T01:45:46.803Z,24.55
2022-09-12T01:48:36.025Z,25.38
2022-09-12T01:51:33.136Z,29.17
2022-09-12T01:54:10.676Z,27.27
2022-09-12T01:56:41.708Z,26.65
2022-09-12T01:59:18.155Z,27.38
2022-09-12T02:01:55.086Z,27.08
2022-09-12T02:04:33.596Z,32.38
2022-09-12T02:07:04.101Z,26.83
2022-09-12T02:09:41.819Z,26.50
2022-09-12T02:12:12.060Z,28.10
2022-09-12T02:14:45.396Z,28.55
2022-09-12T02:17:22.414Z,31.17
2022-09-12T02:20:31.127Z,29.33
2022-09-12T02:23:07.211Z,25.63
2022-09-12T02:25:37.916Z,35.83
2022-09-12T02:28:11.736Z,29.52
2022-09-12T02:31:08.931Z,28.92
2022-09-12T02:33:43.444Z,27.13
2022-09-12T02:36:17.882Z,33.38
2022-09-12T02:38:47.476Z,33.50
2022-09-12T02:41:17.664Z,33.40
2022-09-12T02:43:44.252Z,33.88
2022-09-12T02:46:19.061Z,31.83
2022-09-12T02:48:45.633Z,29.83
2022-09-12T02:51:12.762Z,34.70
2022-09-12T02:53:39.675Z,29.55
2022-09-12T02:56:12.461Z,30.60
2022-09-12T02:58:39.157Z,31.93
2022-09-12T03:01:19.065Z,32.67
2022-09-12T03:04:17.755Z,36.33
2022-09-12T03:07:14.077Z,27.80
2022-09-12T03:10:06.829Z,31.95
2022-09-12T03:12:49.940Z,32.53
2022-09-12T03:16:01.650Z,34.90
2022-09-12T03:19:03.681Z,31.83
2022-09-12T03:22:00.635Z,33.28
2022-09-12T03:24:35.403Z,30.13
2022-09-12T03:27:20.882Z,34.13
2022-09-12T03:29:48.732Z,30.63
2022-09-12T03:32:15.952Z,31.67
2022-09-12T03:34:42.551Z,32.92
2022-09-12T03:37:09.133Z,34.28
2022-09-12T03:39:35.842Z,31.93
2022-09-12T03:42:02.394Z,33.85
2022-09-12T03:44:29.134Z,29.58
2022-09-12T03:46:55.727Z,31.95
2022-09-12T03:49:22.302Z,34.35
2022-09-12T03:51:48.883Z,35.63
2022-09-12T03:54:15.508Z,40.97
2022-09-12T03:56:42.027Z,34.97
2022-09-12T03:59:08.970Z,37.65
2022-09-12T04:01:35.606Z,40.65
2022-09-12T04:04:02.370Z,41.60
2022-09-12T04:06:29.744Z,32.90
2022-09-12T04:08:56.309Z,34.55
2022-09-12T04:11:23.291Z,39.40
2022-09-12T04:13:50.213Z,32.83
2022-09-12T04:16:17.840Z,38.37
2022-09-12T04:18:45.610Z,33.75
2022-09-12T04:21:19.301Z,31.73
2022-09-12T04:23:45.943Z,31.45
2022-09-12T04:26:13.839Z,33.55
2022-09-12T04:28:41.520Z,36.87
2022-09-12T04:31:15.648Z,37.58
2022-09-12T04:33:42.315Z,32.40
2022-09-12T04:36:11.773Z,34.92
2022-09-12T04:38:39.050Z,32.30
2022-09-12T04:41:12.049Z,37.17
2022-09-12T04:43:38.602Z,32.60
2022-09-12T04:46:07.046Z,35.97
2022-09-12T04:48:33.689Z,34.05
2022-09-12T04:51:31.056Z,34.72
2022-09-12T04:54:03.935Z,39.53
2022-09-12T04:56:31.500Z,35.85
2022-09-12T04:59:00.566Z,38.13
2022-09-12T05:01:30.078Z,34.00
2022-09-12T05:03:58.400Z,35.90
2022-09-12T05:06:30.730Z,36.77
2022-09-12T05:08:58.594Z,37.65
2022-09-12T05:11:41.289Z,37.20
2022-09-12T05:14:14.484Z,41.85
2022-09-12T05:16:41.354Z,36.22
2022-09-12T05:19:09.266Z,41.23
2022-09-12T05:21:35.804Z,38.70
2022-09-12T05:24:03.006Z,38.03
2022-09-12T05:26:29.589Z,38.08
2022-09-12T05:28:56.937Z,38.50
2022-09-12T05:31:26.433Z,35.40
2022-09-12T05:33:55.220Z,37.47
2022-09-12T05:36:32.072Z,35.53
2022-09-12T05:38:59.868Z,41.28
2022-09-12T05:41:32.935Z,39.65
2022-09-12T05:44:02.107Z,41.30
2022-09-12T05:46:30.942Z,35.08
2022-09-12T05:49:01.995Z,38.38
2022-09-12T05:51:31.917Z,41.65
2022-09-12T05:54:01.163Z,42.65
2022-09-12T05:56:30.989Z,35.67
2022-09-12T05:59:07.171Z,41.25
2022-09-12T06:01:35.223Z,40.58
2022-09-12T06:04:05.310Z,41.22
2022-09-12T06:06:35.448Z,44.13
2022-09-12T06:09:04.022Z,35.03
2022-09-12T06:11:33.396Z,37.88
2022-09-12T06:14:00.558Z,41.40
2022-09-12T06:16:29.431Z,39.50
2022-09-12T06:18:58.981Z,42.28
2022-09-12T06:21:26.693Z,42.67
2022-09-12T06:23:56.675Z,40.03
2022-09-12T06:26:25.637Z,38.67
2022-09-12T06:28:53.998Z,35.28
2022-09-12T06:31:25.356Z,36.53
2022-09-12T06:33:54.173Z,38.17
2022-09-12T06:36:26.771Z,38.83
2022-09-12T06:39:01.587Z,40.30
2022-09-12T06:41:29.518Z,37.63
2022-09-12T06:43:56.670Z,34.40
2022-09-12T06:46:24.325Z,41.83
2022-09-12T06:48:51.162Z,40.63
2022-09-12T06:51:20.129Z,36.65
2022-09-12T06:53:48.301Z,33.42
2022-09-12T06:56:27.065Z,33.60
2022-09-12T06:58:55.993Z,29.80
2022-09-12T07:01:32.287Z,32.53
2022-09-12T07:04:01.207Z,31.52
2022-09-12T07:06:34.093Z,34.83
2022-09-12T07:09:05.387Z,27.95
2022-09-12T07:11:34.337Z,29.17
2022-09-12T07:14:03.215Z,29.98
2022-09-12T07:16:30.341Z,29.80
2022-09-12T07:19:00.522Z,30.23
2022-09-12T07:21:28.002Z,28.23
2022-09-12T07:24:00.737Z,39.30
2022-09-12T07:26:29.573Z,27.50
2022-09-12T07:29:08.299Z,28.20
2022-09-12T07:31:44.825Z,28.50
2022-09-12T07:34:11.671Z,28.38
2022-09-12T07:36:39.238Z,29.07
2022-09-12T07:39:06.020Z,28.15
2022-09-12T07:41:36.598Z,27.67
2022-09-12T07:44:04.558Z,27.50
2022-09-12T07:46:31.809Z,27.77
2022-09-12T07:49:00.489Z,24.43
2022-09-12T07:51:29.550Z,30.83
2022-09-12T07:53:56.561Z,32.97
2022-09-12T07:56:29.375Z,26.50
2022-09-12T07:58:57.345Z,27.58
2022-09-12T08:01:24.600Z,25.97
2022-09-12T08:03:55.631Z,29.48
2022-09-12T08:06:24.311Z,24.80
2022-09-12T08:08:52.131Z,27.73
2022-09-12T08:11:22.277Z,27.25
2022-09-12T08:13:54.422Z,25.00
2022-09-12T08:16:26.809Z,23.30
2022-09-12T08:18:54.251Z,24.48
2022-09-12T08:21:23.300Z,22.20
2022-09-12T08:23:55.019Z,26.27
2022-09-12T08:26:22.101Z,22.07
2022-09-12T08:28:49.400Z,19.00
2022-09-12T08:31:18.470Z,20.50
2022-09-12T08:33:45.552Z,18.48
2022-09-12T08:36:17.865Z,19.45
2022-09-12T08:38:46.490Z,18.80
2022-09-12T08:41:16.124Z,16.38
2022-09-12T08:44:10.288Z,18.38
2022-09-12T08:46:36.852Z,16.27
2022-09-12T08:49:08.384Z,16.15
2022-09-12T08:51:36.165Z,17.70
2022-09-12T08:54:06.463Z,17.35
2022-09-12T08:56:38.498Z,21.10
2022-09-12T08:59:05.115Z,14.48
2022-09-12T09:01:38.537Z,15.80
2022-09-12T09:04:28.937Z,15.50
2022-09-12T09:07:01.247Z,14.25
2022-09-12T09:09:39.963Z,17.23
2022-09-12T09:12:07.036Z,12.85
2022-09-12T09:14:55.296Z,12.30
2022-09-12T09:17:29.261Z,16.63
2022-09-12T09:20:02.942Z,12.00
2022-09-12T09:22:46.307Z,14.20
2022-09-12T09:25:22.731Z,12.95
2022-09-12T09:28:06.191Z,12.82
2022-09-12T09:30:35.995Z,10.60
2022-09-12T09:33:09.928Z,12.95
2022-09-12T09:35:49.048Z,9.40
2022-09-12T09:38:23.588Z,8.63
2022-09-12T09:41:05.260Z,7.72
2022-09-12T09:43:31.921Z,9.07
2022-09-12T09:46:01.628Z,9.90
2022-09-12T09:48:32.612Z,8.63
2022-09-12T09:51:02.187Z,10.38
2022-09-12T09:53:35.212Z,8.20
2022-09-12T09:56:08.984Z,7.83
2022-09-12T09:58:36.715Z,11.98
2022-09-12T10:01:07.218Z,9.23
2022-09-12T10:03:38.995Z,8.82
2022-09-12T10:06:25.361Z,8.00
2022-09-12T10:09:03.432Z,7.03
2022-09-12T10:11:30.317Z,8.00
2022-09-12T10:14:00.028Z,7.55
2022-09-12T10:16:48.092Z,6.65
2022-09-12T10:19:34.011Z,7.22
2022-09-12T10:22:01.097Z,7.50
2022-09-12T10:24:34.255Z,7.15
2022-09-12T10:27:16.982Z,7.10
2022-09-12T10:30:06.025Z,7.28
2022-09-12T10:32:42.596Z,5.82
2022-09-12T10:35:19.807Z,6.37
2022-09-12T10:38:03.093Z,7.28
2022-09-12T10:40:33.440Z,6.50
2022-09-12T10:43:00.685Z,8.00
2022-09-12T10:45:27.237Z,7.63
2022-09-12T10:47:55.816Z,7.43
2022-09-12T10:50:39.079Z,7.85
2022-09-12T10:53:20.384Z,8.05
2022-09-12T10:56:26.110Z,5.93
2022-09-12T10:59:18.056Z,9.23
2022-09-12T11:02:29.775Z,5.53
2022-09-12T11:05:18.347Z,7.47
2022-09-12T11:08:09.856Z,6.45
2022-09-12T11:10:54.468Z,8.93
2022-09-12T11:13:38.677Z,7.35
2022-09-12T11:16:08.038Z,5.07
2022-09-12T11:19:09.685Z,6.25
2022-09-12T11:22:05.546Z,7.28
2022-09-12T11:24:55.348Z,7.40
2022-09-12T11:27:28.113Z,8.07
2022-09-12T11:29:58.288Z,7.07
2022-09-12T11:33:00.037Z,6.85
2022-09-12T11:35:31.977Z,8.50
2022-09-12T11:38:23.641Z,9.02
2022-09-12T11:40:59.662Z,7.05
2022-09-12T11:43:55.609Z,9.23
2022-09-12T11:46:30.019Z,6.47
2022-09-12T11:49:04.660Z,7.50
2022-09-12T11:52:20.315Z,7.38
2022-09-12T11:55:07.643Z,11.38
2022-09-12T11:57:39.134Z,12.60
2022-09-12T12:00:19.040Z,6.03
2022-09-12T12:03:09.282Z,8.50
2022-09-12T12:06:01.147Z,6.20
2022-09-12T12:08:31.123Z,8.75
2022-09-12T12:11:00.201Z,5.60
2022-09-12T12:13:50.183Z,7.05
2022-09-12T12:16:37.205Z,9.85
2022-09-12T12:19:34.855Z,5.95
2022-09-12T12:22:18.224Z,5.85
2022-09-12T12:24:58.671Z,6.27
2022-09-12T12:27:50.754Z,9.32
2022-09-12T12:30:56.158Z,6.32
2022-09-12T12:33:22.701Z,7.88
2022-09-12T12:36:03.535Z,6.13
2022-09-12T12:38:33.776Z,5.67
2022-09-12T12:41:18.661Z,9.07
2022-09-12T12:43:47.411Z,5.28
2022-09-12T12:46:18.972Z,8.05
2022-09-12T12:48:48.550Z,4.97
2022-09-12T12:51:33.552Z,7.40
2022-09-12T12:54:52.664Z,5.30
2022-09-12T12:57:22.340Z,7.10
2022-09-12T12:59:53.446Z,7.35
2022-09-12T13:02:33.626Z,6.70
2022-09-12T13:05:04.350Z,4.77
2022-09-12T13:07:37.928Z,5.30
2022-09-12T13:10:07.435Z,5.40
2022-09-12T13:12:55.823Z,5.35
2022-09-12T13:15:37.568Z,5.38
2022-09-12T13:18:07.517Z,6.87
2022-09-12T13:20:44.877Z,7.97
2022-09-12T13:23:41.314Z,7.35
2022-09-12T13:26:13.955Z,5.78
2022-09-12T13:28:40.645Z,4.65
2022-09-12T13:31:23.324Z,5.10
2022-09-12T13:34:00.017Z,5.25
2022-09-12T13:36:30.117Z,6.40
2022-09-12T13:39:24.423Z,7.00
2022-09-12T13:42:15.571Z,6.10
2022-09-12T13:44:58.978Z,5.90
2022-09-12T13:47:32.508Z,5.38
2022-09-12T13:50:00.448Z,6.10
2022-09-12T13:52:32.198Z,5.60
2022-09-12T13:55:00.519Z,6.03
2022-09-12T13:57:41.258Z,4.80
2022-09-12T14:00:20.034Z,5.43
2022-09-12T14:02:48.301Z,5.35
2022-09-12T14:05:22.886Z,5.95
2022-09-12T14:07:55.045Z,5.00
2022-09-12T14:10:31.838Z,5.33
2022-09-12T14:13:01.017Z,5.68
2022-09-12T14:15:31.738Z,4.90
2022-09-12T14:18:01.798Z,8.63
2022-09-12T14:20:33.565Z,6.05
2022-09-12T14:23:17.711Z,5.03
2022-09-12T14:25:47.894Z,5.32
2022-09-12T14:28:23.618Z,6.15
2022-09-12T14:30:59.641Z,5.63
2022-09-12T14:33:26.284Z,5.60
2022-09-12T14:36:10.416Z,7.10
2022-09-12T14:38:41.984Z,5.65
2022-09-12T14:41:11.743Z,4.75
2022-09-12T14:43:46.282Z,5.07
2022-09-12T14:46:18.321Z,4.53
2022-09-12T14:48:51.156Z,3.93
2022-09-12T14:51:25.126Z,7.00
2022-09-12T14:53:51.922Z,4.72
2022-09-12T14:56:21.243Z,4.50
2022-09-12T14:58:48.942Z,4.63
2022-09-12T15:01:15.473Z,5.43
2022-09-12T15:03:46.020Z,5.32
2022-09-12T15:06:23.299Z,4.30
2022-09-12T15:08:51.684Z,4.85
2022-09-12T15:11:18.266Z,5.85
2022-09-12T15:13:44.848Z,5.83
2022-09-12T15:16:12.270Z,4.45
2022-09-12T15:18:38.936Z,5.80
2022-09-12T15:21:07.968Z,7.45
2022-09-12T15:23:36.306Z,4.53
2022-09-12T15:26:03.509Z,4.47
2022-09-12T15:28:31.955Z,5.18
2022-09-12T15:31:04.491Z,6.75
2022-09-12T15:33:31.191Z,5.25
2022-09-12T15:35:57.767Z,4.72
2022-09-12T15:38:26.718Z,5.83
2022-09-12T15:40:54.081Z,6.53
2022-09-12T15:43:22.063Z,7.10
2022-09-12T15:45:51.749Z,4.78
2022-09-12T15:48:19.392Z,6.05
2022-09-12T15:50:46.126Z,5.47
2022-09-12T15:53:16.168Z,4.55
2022-09-12T15:55:43.701Z,4.72
2022-09-12T15:58:10.406Z,4.45
2022-09-12T16:00:37.337Z,5.70
2022-09-12T16:03:04.825Z,6.20
2022-09-12T16:05:31.602Z,4.72
2022-09-12T16:07:58.121Z,6.20
2022-09-12T16:10:27.806Z,4.97
2022-09-12T16:12:54.702Z,4.93
2022-09-12T16:15:24.285Z,4.60
2022-09-12T16:17:51.648Z,4.50
2022-09-12T16:20:19.320Z,3.85
2022-09-12T16:22:46.053Z,5.10
2022-09-12T16:25:12.654Z,6.18
2022-09-12T16:27:39.337Z,6.03
2022-09-12T16:30:07.711Z,4.60
2022-09-12T16:32:34.426Z,4.65
2022-09-12T16:35:01.093Z,5.30
2022-09-12T16:37:28.118Z,4.50
2022-09-12T16:39:54.894Z,5.00
2022-09-12T16:42:21.637Z,5.65
2022-09-12T16:44:48.243Z,4.32
2022-09-12T16:47:15.091Z,5.20
2022-09-12T16:49:41.608Z,4.50
2022-09-12T16:52:08.457Z,4.47
2022-09-12T16:54:35.116Z,6.10
2022-09-12T16:57:02.660Z,5.03
2022-09-12T16:59:29.229Z,6.07
2022-09-12T17:01:55.785Z,5.15
2022-09-12T17:04:23.683Z,4.53
2022-09-12T17:06:50.544Z,5.22
2022-09-12T17:09:18.755Z,4.80
2022-09-12T17:11:47.901Z,5.80
2022-09-12T17:14:14.622Z,4.53
2022-09-12T17:16:47.974Z,5.47
2022-09-12T17:19:24.489Z,5.13
2022-09-12T17:21:51.170Z,6.07
2022-09-12T17:24:19.051Z,5.70
2022-09-12T17:26:46.636Z,6.25
2022-09-12T17:29:13.989Z,5.47
2022-09-12T17:31:41.928Z,5.22
2022-09-12T17:34:09.212Z,4.70
2022-09-12T17:36:35.830Z,4.20
2022-09-12T17:39:04.197Z,4.30
2022-09-12T17:41:34.686Z,5.23
2022-09-12T17:44:03.450Z,5.47
2022-09-12T17:46:35.075Z,6.63
2022-09-12T17:49:02.634Z,7.75
2022-09-12T17:51:31.213Z,7.15
2022-09-12T17:54:02.022Z,6.10
2022-09-12T17:56:31.030Z,5.20
2022-09-12T17:58:59.205Z,13.75
2022-09-12T18:01:45.582Z,13.70
2022-09-12T18:04:12.622Z,5.78
2022-09-12T18:06:40.834Z,5.63
2022-09-12T18:09:09.731Z,8.55
2022-09-12T18:11:36.611Z,5.55
2022-09-12T18:14:03.247Z,5.53
2022-09-12T18:16:31.549Z,9.23
2022-09-12T18:19:04.464Z,5.93
2022-09-12T18:21:31.114Z,5.35
2022-09-12T18:23:59.356Z,7.00
2022-09-12T18:26:28.408Z,4.95
2022-09-12T18:28:55.393Z,5.25
2022-09-12T18:31:24.522Z,5.57
2022-09-12T18:33:51.397Z,5.57
2022-09-12T18:36:19.269Z,5.75
2022-09-12T18:38:46.245Z,5.72
2022-09-12T18:41:19.377Z,5.70
2022-09-12T18:43:46.539Z,9.43
2022-09-12T18:46:18.473Z,5.57
2022-09-12T18:48:46.238Z,5.70
2022-09-12T18:51:16.159Z,7.35
2022-09-12T18:53:43.026Z,6.47
2022-09-12T18:56:13.704Z,6.90
2022-09-12T18:58:42.949Z,8.55
2022-09-12T19:01:16.107Z,8.07
2022-09-12T19:03:43.688Z,6.18
2022-09-12T19:06:17.661Z,8.30
2022-09-12T19:08:45.356Z,9.47
2022-09-12T19:11:12.644Z,6.45
2022-09-12T19:13:43.475Z,6.82
2022-09-12T19:16:13.395Z,6.88
2022-09-12T19:18:40.564Z,6.35
2022-09-12T19:21:12.364Z,7.13
2022-09-12T19:23:39.135Z,6.78
2022-09-12T19:26:07.786Z,12.32
2022-09-12T19:28:34.892Z,9.35
2022-09-12T19:31:07.799Z,7.63
2022-09-12T19:33:35.127Z,8.80
2022-09-12T19:36:13.847Z,7.75
2022-09-12T19:38:48.942Z,9.15
2022-09-12T19:41:15.582Z,8.63
2022-09-12T19:43:42.446Z,9.68
2022-09-12T19:46:15.741Z,6.73
2022-09-12T19:48:42.391Z,9.57
2022-09-12T19:51:08.994Z,8.40
2022-09-12T19:53:36.859Z,7.10
2022-09-12T19:56:04.723Z,10.35
2022-09-12T19:58:35.871Z,7.27
2022-09-12T20:01:09.738Z,7.55
2022-09-12T20:03:37.444Z,9.82
2022-09-12T20:06:06.688Z,7.57
2022-09-12T20:08:34.339Z,6.63
2022-09-12T20:11:01.471Z,9.47
2022-09-12T20:13:28.125Z,7.88
2022-09-12T20:15:54.758Z,10.30
2022-09-12T20:18:21.587Z,7.90
2022-09-12T20:20:48.300Z,8.50
2022-09-12T20:23:14.866Z,13.40
2022-09-12T20:25:42.097Z,9.30
2022-09-12T20:28:08.739Z,10.13
2022-09-12T20:30:35.409Z,9.55
2022-09-12T20:33:02.019Z,8.75
2022-09-12T20:35:28.640Z,8.93
2022-09-12T20:37:55.210Z,8.25
2022-09-12T20:40:21.983Z,13.90
2022-09-12T20:42:48.582Z,9.63
2022-09-12T20:45:15.210Z,9.05
2022-09-12T20:47:41.846Z,9.30
2022-09-12T20:50:08.896Z,9.68
2022-09-12T20:52:35.484Z,8.95
2022-09-12T20:55:02.055Z,11.75
2022-09-12T20:57:28.785Z,11.30
2022-09-12T20:59:55.372Z,9.57
2022-09-12T21:02:22.192Z,10.18
2022-09-12T21:04:48.940Z,9.43
2022-09-12T21:07:15.658Z,9.77
2022-09-12T21:09:42.227Z,8.15
2022-09-12T21:12:08.892Z,9.30
2022-09-12T21:14:35.444Z,9.25
2022-09-12T21:17:02.486Z,11.35
2022-09-12T21:19:29.080Z,8.55
2022-09-12T21:21:55.686Z,11.85
2022-09-12T21:24:22.250Z,9.23
2022-09-12T21:26:48.859Z,10.80
2022-09-12T21:29:15.513Z,8.82
2022-09-12T21:31:43.625Z,8.95
2022-09-12T21:34:10.213Z,9.70
2022-09-12T21:36:37.556Z,12.37
2022-09-12T21:39:04.948Z,8.95
2022-09-12T21:41:31.519Z,9.40
2022-09-12T21:43:58.085Z,11.98
2022-09-12T21:46:24.652Z,8.80
2022-09-12T21:48:51.289Z,22.27
2022-09-12T21:51:18.160Z,8.93
2022-09-12T21:53:44.757Z,12.05
2022-09-12T21:56:11.382Z,10.18
2022-09-12T21:58:38.285Z,13.48
2022-09-12T22:01:06.125Z,13.47
2022-09-12T22:03:32.851Z,10.68
2022-09-12T22:06:01.860Z,11.15
2022-09-12T22:08:30.291Z,10.90
2022-09-12T22:11:02.188Z,11.27
2022-09-12T22:13:32.445Z,12.33
2022-09-12T22:16:03.608Z,9.65
2022-09-12T22:18:32.965Z,10.70
2022-09-12T22:21:08.402Z,13.27
2022-09-12T22:23:53.874Z,14.23
2022-09-12T22:26:20.526Z,12.90
2022-09-12T22:28:47.765Z,12.07
2022-09-12T22:31:15.081Z,13.55
2022-09-12T22:33:41.788Z,12.88
2022-09-12T22:36:09.955Z,13.90
2022-09-12T22:38:36.785Z,15.97
2022-09-12T22:41:09.753Z,14.15
2022-09-12T22:43:36.951Z,11.52
2022-09-12T22:46:12.572Z,12.82
2022-09-12T22:48:40.680Z,12.52
2022-09-12T22:51:07.572Z,15.60
2022-09-12T22:53:35.593Z,14.90
2022-09-12T22:56:02.851Z,13.32
2022-09-12T22:58:29.483Z,12.88
2022-09-12T23:00:56.113Z,15.10
2022-09-12T23:03:22.849Z,14.27
2022-09-12T23:05:49.451Z,12.95
2022-09-12T23:08:17.809Z,13.20
2022-09-12T23:10:44.463Z,15.13
2022-09-12T23:13:11.679Z,17.77
2022-09-12T23:15:39.055Z,12.93
2022-09-12T23:18:05.720Z,16.80
2022-09-12T23:20:32.421Z,12.68
2022-09-12T23:22:58.982Z,15.77
2022-09-12T23:25:26.398Z,14.82
2022-09-12T23:27:53.492Z,16.00
2022-09-12T23:30:21.512Z,17.40
2022-09-12T23:32:49.221Z,14.30
2022-09-12T23:35:19.710Z,14.00
2022-09-12T23:37:47.421Z,13.95
2022-09-12T23:40:14.106Z,17.30
2022-09-12T23:42:40.727Z,13.30
2022-09-12T23:45:07.861Z,15.18
2022-09-12T23:47:34.520Z,17.33
2022-09-12T23:50:01.094Z,16.85
2022-09-12T23:52:27.742Z,15.80
2022-09-12T23:54:54.281Z,15.38
2022-09-12T23:57:20.817Z,13.63
2022-09-12T23:59:47.396Z,13.80
